Time;durP1;ratioP1;P1;durP2;ratioP2;P2;SDS_P1;SDS_P2;PMS_P1;PMS_P2;Temp;Humidity;BMP_temperature;BMP_pressure;BME280_temperature;BME280_humidity;BME280_pressure;Samples;Min_cycle;Max_cycle;Signal;HPM_P1;HPM_P2
2023/01/29 00:01:51;;;;;;;11.52;9.18;;;;;;;;;;5085914;28;20118;-66
2023/01/29 00:04:17;;;;;;;10.80;8.40;;;;;;;;;;5086521;28;20044;-65
2023/01/29 00:06:42;;;;;;;14.75;8.98;;;;;;;;;;5079532;28;20039;-66
2023/01/29 00:09:09;;;;;;;9.80;7.95;;;;;;;;;;5082760;28;20110;-66
2023/01/29 00:11:35;;;;;;;12.35;8.48;;;;;;;;;;5084386;28;20032;-66
2023/01/29 00:14:00;;;;;;;9.32;7.25;;;;;;;;;;5085636;28;20495;-66
2023/01/29 00:16:26;;;;;;;12.27;8.70;;;;;;;;;;5087257;28;20028;-66
2023/01/29 00:18:52;;;;;;;11.45;8.68;;;;;;;;;;5084313;28;20043;-66
2023/01/29 00:21:20;;;;;;;12.30;8.40;;;;;;;;;;5084876;28;20553;-66
2023/01/29 00:23:47;;;;;;;14.23;8.52;;;;;;;;;;5083341;28;20035;-66
2023/01/29 00:26:13;;;;;;;13.95;9.70;;;;;;;;;;5079038;28;20058;-65
2023/01/29 00:28:43;;;;;;;11.20;8.00;;;;;;;;;;5074833;28;20036;-66
2023/01/29 00:31:15;;;;;;;13.10;8.30;;;;;;;;;;5076255;28;20141;-65
2023/01/29 00:33:42;;;;;;;10.18;8.25;;;;;;;;;;5092070;28;20098;-66
2023/01/29 00:36:10;;;;;;;15.40;9.35;;;;;;;;;;5081464;28;20632;-66
2023/01/29 00:38:36;;;;;;;9.48;7.60;;;;;;;;;;5078263;28;20030;-66
2023/01/29 00:46:49;;;;;;;11.93;9.20;;;;;;;;;;5060258;28;20040;-66
2023/01/29 00:49:16;;;;;;;10.82;8.48;;;;;;;;;;5074718;28;20055;-65
2023/01/29 00:51:41;;;;;;;16.02;8.52;;;;;;;;;;5077656;28;20055;-66
2023/01/29 00:54:07;;;;;;;13.02;8.23;;;;;;;;;;5064228;28;20066;-66
2023/01/29 00:56:35;;;;;;;9.38;7.75;;;;;;;;;;5060591;28;20162;-66
2023/01/29 00:59:01;;;;;;;10.43;8.18;;;;;;;;;;5077714;28;20693;-66
2023/01/29 01:04:11;;;;;;;14.45;9.02;;;;;;;;;;5077335;28;20043;-66
2023/01/29 01:06:39;;;;;;;9.63;7.65;;;;;;;;;;5076875;28;20048;-66
2023/01/29 01:11:50;;;;;;;13.65;9.07;;;;;;;;;;5075509;28;20040;-66
2023/01/29 01:14:17;;;;;;;11.43;8.32;;;;;;;;;;5059636;28;20897;-66
2023/01/29 01:16:47;;;;;;;11.18;8.60;;;;;;;;;;5075448;28;20044;-66
2023/01/29 01:19:13;;;;;;;10.77;7.63;;;;;;;;;;5060103;28;20032;-66
2023/01/29 01:21:39;;;;;;;13.75;9.18;;;;;;;;;;5054578;28;20501;-66
2023/01/29 01:24:05;;;;;;;14.77;8.05;;;;;;;;;;5063434;28;20025;-66
2023/01/29 01:26:31;;;;;;;11.27;7.80;;;;;;;;;;5078126;28;20111;-66
2023/01/29 01:28:58;;;;;;;10.50;8.10;;;;;;;;;;5058914;28;20395;-66
2023/01/29 01:31:24;;;;;;;12.68;8.25;;;;;;;;;;5055242;28;20500;-66
2023/01/29 01:33:50;;;;;;;12.40;8.63;;;;;;;;;;5078213;28;20033;-65
2023/01/29 01:36:17;;;;;;;10.98;7.97;;;;;;;;;;5077812;28;20052;-66
2023/01/29 01:38:45;;;;;;;14.18;9.65;;;;;;;;;;5076618;28;20064;-66
2023/01/29 01:41:13;;;;;;;12.10;7.95;;;;;;;;;;5082166;28;20517;-66
2023/01/29 01:43:57;;;;;;;9.75;7.70;;;;;;;;;;5050374;28;20047;-66
2023/01/29 01:46:24;;;;;;;13.88;8.85;;;;;;;;;;5076400;28;20529;-66
2023/01/29 01:48:56;;;;;;;9.73;7.15;;;;;;;;;;5081104;28;20036;-66
2023/01/29 01:51:25;;;;;;;11.35;8.40;;;;;;;;;;5076189;28;20043;-66
2023/01/29 01:54:06;;;;;;;9.82;8.05;;;;;;;;;;5059243;28;20483;-66
2023/01/29 01:56:42;;;;;;;9.77;6.85;;;;;;;;;;5070145;28;20024;-66
2023/01/29 01:59:11;;;;;;;10.10;7.38;;;;;;;;;;5064707;28;20662;-66
2023/01/29 02:01:41;;;;;;;11.73;7.90;;;;;;;;;;5080475;28;20040;-66
2023/01/29 02:10:10;;;;;;;10.57;7.57;;;;;;;;;;5080615;28;20668;-66
2023/01/29 02:12:37;;;;;;;9.80;7.10;;;;;;;;;;5058260;28;20175;-66
2023/01/29 02:15:03;;;;;;;13.73;7.53;;;;;;;;;;5078605;28;20024;-66
2023/01/29 02:17:30;;;;;;;9.45;7.18;;;;;;;;;;5083095;28;20492;-66
2023/01/29 02:20:18;;;;;;;10.15;8.00;;;;;;;;;;5064403;28;20028;-66
2023/01/29 02:23:02;;;;;;;10.90;8.48;;;;;;;;;;5075454;28;20025;-66
2023/01/29 02:25:54;;;;;;;11.82;8.07;;;;;;;;;;5076256;28;20543;-66
2023/01/29 02:28:37;;;;;;;11.00;8.60;;;;;;;;;;5079123;28;20115;-66
2023/01/29 02:31:27;;;;;;;13.35;8.40;;;;;;;;;;5078821;28;20032;-66
2023/01/29 02:34:04;;;;;;;;;;;;;;;;;;5081052;28;20145;-66
2023/01/29 02:36:44;;;;;;;11.70;8.30;;;;;;;;;;5078107;28;19973;-66
2023/01/29 02:39:13;;;;;;;11.98;7.85;;;;;;;;;;5082998;28;20117;-66
2023/01/29 02:42:10;;;;;;;11.50;8.60;;;;;;;;;;5080050;28;20221;-66
2023/01/29 02:44:44;;;;;;;11.45;8.40;;;;;;;;;;5008065;28;20061;-66
2023/01/29 02:47:14;;;;;;;10.45;8.27;;;;;;;;;;5010146;28;20101;-66
2023/01/29 02:50:01;;;;;;;11.15;8.05;;;;;;;;;;5026019;28;20106;-66
2023/01/29 02:52:42;;;;;;;14.27;8.75;;;;;;;;;;5026637;28;20171;-66
2023/01/29 02:55:15;;;;;;;13.43;8.82;;;;;;;;;;5024911;28;20037;-66
2023/01/29 02:57:45;;;;;;;10.05;7.85;;;;;;;;;;5023853;28;20069;-66
2023/01/29 03:00:18;;;;;;;11.00;7.50;;;;;;;;;;5018315;28;20037;-66
2023/01/29 03:03:05;;;;;;;11.05;7.95;;;;;;;;;;5025813;28;20091;-66
2023/01/29 03:05:42;;;;;;;10.50;7.32;;;;;;;;;;5022855;28;20039;-66
2023/01/29 03:08:17;;;;;;;10.25;6.97;;;;;;;;;;5017129;28;20439;-66
2023/01/29 03:10:49;;;;;;;12.57;7.28;;;;;;;;;;5010186;28;20072;-66
2023/01/29 03:13:25;;;;;;;7.85;6.53;;;;;;;;;;5022527;28;20033;-65
2023/01/29 03:16:00;;;;;;;11.55;7.45;;;;;;;;;;5015973;28;20045;-66
2023/01/29 03:18:44;;;;;;;11.25;7.40;;;;;;;;;;5023849;28;20049;-66
2023/01/29 03:32:50;;;;;;;11.02;7.50;;;;;;;;;;5082216;28;20043;-65
2023/01/29 03:35:34;;;;;;;11.00;8.02;;;;;;;;;;5062680;28;20036;-66
2023/01/29 03:38:01;;;;;;;9.45;7.70;;;;;;;;;;5083539;28;20041;-65
2023/01/29 03:40:50;;;;;;;13.32;8.00;;;;;;;;;;5078802;28;20065;-66
2023/01/29 03:43:46;;;;;;;7.18;6.40;;;;;;;;;;5079947;28;20294;-66
2023/01/29 03:46:35;;;;;;;10.30;7.68;;;;;;;;;;5081722;28;20093;-66
2023/01/29 03:49:25;;;;;;;12.03;7.37;;;;;;;;;;5058962;28;20040;-66
2023/01/29 03:52:18;;;;;;;10.25;6.53;;;;;;;;;;5059162;28;20032;-66
2023/01/29 03:55:00;;;;;;;8.65;6.72;;;;;;;;;;5066510;28;20072;-67
2023/01/29 03:57:32;;;;;;;8.00;6.72;;;;;;;;;;5043967;28;20280;-67
2023/01/29 04:00:14;;;;;;;9.02;7.38;;;;;;;;;;5056840;28;20048;-64
2023/01/29 04:03:13;;;;;;;7.75;6.45;;;;;;;;;;5075282;28;20032;-65
2023/01/29 04:05:50;;;;;;;10.13;7.15;;;;;;;;;;5059615;28;20032;-65
2023/01/29 04:08:27;;;;;;;9.80;7.20;;;;;;;;;;5059512;28;20056;-67
2023/01/29 04:10:57;;;;;;;11.30;7.70;;;;;;;;;;5081059;28;20120;-66
2023/01/29 04:13:24;;;;;;;11.30;7.85;;;;;;;;;;5077446;28;20037;-67
2023/01/29 04:15:56;;;;;;;13.35;8.27;;;;;;;;;;5075296;28;20185;-66
2023/01/29 04:18:55;;;;;;;15.30;7.68;;;;;;;;;;5026213;28;20090;-67
2023/01/29 04:21:26;;;;;;;10.82;7.60;;;;;;;;;;5069246;28;20048;-67
2023/01/29 04:23:53;;;;;;;11.45;7.43;;;;;;;;;;5059457;28;20043;-66
2023/01/29 04:26:37;;;;;;;12.13;7.57;;;;;;;;;;5062717;28;20045;-66
2023/01/29 04:29:25;;;;;;;12.52;8.15;;;;;;;;;;5069334;28;20503;-67
2023/01/29 04:32:10;;;;;;;10.32;7.72;;;;;;;;;;5048164;28;20035;-67
2023/01/29 04:34:55;;;;;;;11.43;8.52;;;;;;;;;;5061782;28;20121;-66
2023/01/29 04:38:00;;;;;;;9.63;7.93;;;;;;;;;;5059180;28;20040;-67
2023/01/29 04:40:38;;;;;;;9.63;7.07;;;;;;;;;;5076234;28;20110;-67
2023/01/29 04:43:32;;;;;;;9.95;7.22;;;;;;;;;;5077234;28;20028;-66
2023/01/29 04:46:17;;;;;;;10.18;7.57;;;;;;;;;;5071373;28;20399;-66
2023/01/29 04:49:00;;;;;;;10.18;7.53;;;;;;;;;;5078587;28;20081;-67
2023/01/29 04:51:51;;;;;;;11.52;7.88;;;;;;;;;;5076415;28;20059;-67
2023/01/29 04:54:33;;;;;;;11.27;8.55;;;;;;;;;;5077946;28;20637;-67
2023/01/29 04:57:22;;;;;;;14.68;7.88;;;;;;;;;;5078778;28;20094;-66
2023/01/29 04:59:56;;;;;;;13.23;8.27;;;;;;;;;;5076278;28;20040;-67
2023/01/29 05:02:24;;;;;;;11.10;8.25;;;;;;;;;;5078229;28;20070;-66
2023/01/29 05:04:51;;;;;;;13.30;8.30;;;;;;;;;;5079388;28;20036;-66
2023/01/29 05:07:18;;;;;;;12.82;8.18;;;;;;;;;;5078193;28;20044;-66
2023/01/29 05:09:46;;;;;;;14.70;9.13;;;;;;;;;;5055401;28;20072;-66
2023/01/29 05:12:14;;;;;;;11.73;7.93;;;;;;;;;;5074719;28;20111;-66
2023/01/29 05:14:43;;;;;;;14.00;7.70;;;;;;;;;;5077690;28;20032;-66
2023/01/29 05:17:14;;;;;;;11.77;8.10;;;;;;;;;;5077332;28;20040;-65
2023/01/29 05:19:40;;;;;;;11.80;7.35;;;;;;;;;;5078543;28;20066;-66
2023/01/29 05:22:09;;;;;;;11.68;8.00;;;;;;;;;;5076710;28;20048;-66
2023/01/29 05:24:36;;;;;;;12.13;8.57;;;;;;;;;;5076844;28;20110;-66
2023/01/29 05:29:47;;;;;;;10.48;7.90;;;;;;;;;;5075962;28;20043;-66
2023/01/29 05:32:13;;;;;;;10.73;7.95;;;;;;;;;;5084790;28;20070;-66
2023/01/29 05:34:38;;;;;;;10.35;8.35;;;;;;;;;;5082417;28;20044;-66
2023/01/29 05:37:04;;;;;;;11.98;8.63;;;;;;;;;;5082293;28;20044;-66
2023/01/29 05:39:29;;;;;;;13.85;8.68;;;;;;;;;;5083241;28;20607;-66
2023/01/29 05:41:55;;;;;;;13.13;7.93;;;;;;;;;;5081699;28;20111;-66
2023/01/29 05:44:20;;;;;;;12.23;8.65;;;;;;;;;;5086291;28;20042;-66
2023/01/29 05:46:46;;;;;;;10.93;8.45;;;;;;;;;;5081234;28;20074;-66
2023/01/29 05:49:12;;;;;;;8.80;6.88;;;;;;;;;;5075201;28;20067;-66
2023/01/29 05:51:37;;;;;;;10.85;7.40;;;;;;;;;;5081383;28;20040;-66
2023/01/29 05:54:03;;;;;;;11.65;7.75;;;;;;;;;;5084175;28;20085;-66
2023/01/29 05:56:29;;;;;;;13.18;8.77;;;;;;;;;;5085542;28;20044;-66
2023/01/29 05:58:55;;;;;;;12.40;8.48;;;;;;;;;;5082040;28;20429;-66
2023/01/29 06:01:23;;;;;;;11.73;8.13;;;;;;;;;;5078864;28;20068;-66
2023/01/29 06:03:49;;;;;;;11.63;7.13;;;;;;;;;;5081886;28;20048;-67
2023/01/29 06:06:15;;;;;;;11.70;7.65;;;;;;;;;;5078705;28;20041;-66
2023/01/29 06:08:41;;;;;;;10.98;8.25;;;;;;;;;;5077302;28;20047;-66
2023/01/29 06:11:12;;;;;;;10.32;7.78;;;;;;;;;;5079133;28;20444;-66
2023/01/29 06:13:38;;;;;;;12.18;7.70;;;;;;;;;;5081294;28;20036;-66
2023/01/29 06:16:05;;;;;;;10.23;7.97;;;;;;;;;;5078370;28;20161;-66
2023/01/29 06:18:31;;;;;;;13.02;7.57;;;;;;;;;;5082209;28;20036;-66
2023/01/29 06:21:05;;;;;;;13.00;8.48;;;;;;;;;;5080831;28;20044;-65
2023/01/29 06:23:31;;;;;;;14.48;8.90;;;;;;;;;;5080111;28;20028;-65
2023/01/29 06:26:01;;;;;;;12.15;8.65;;;;;;;;;;5081648;28;20028;-65
2023/01/29 06:28:26;;;;;;;15.52;8.07;;;;;;;;;;5076827;28;20042;-66
2023/01/29 06:30:52;;;;;;;17.50;9.55;;;;;;;;;;5083346;28;20031;-66
2023/01/29 06:33:17;;;;;;;10.85;8.23;;;;;;;;;;5080168;28;20041;-65
2023/01/29 06:35:43;;;;;;;14.15;8.63;;;;;;;;;;5078054;28;20029;-66
2023/01/29 06:38:08;;;;;;;13.70;8.40;;;;;;;;;;5082112;28;20034;-65
2023/01/29 06:40:34;;;;;;;17.50;8.45;;;;;;;;;;5081536;28;20120;-65
2023/01/29 06:43:00;;;;;;;12.77;8.57;;;;;;;;;;5078620;28;20480;-64
2023/01/29 06:45:25;;;;;;;8.90;7.38;;;;;;;;;;5081073;28;20046;-64
2023/01/29 06:47:51;;;;;;;13.52;9.00;;;;;;;;;;5079904;28;20037;-63
2023/01/29 06:50:17;;;;;;;14.38;9.10;;;;;;;;;;5079273;28;20060;-64
2023/01/29 06:52:42;;;;;;;12.38;8.00;;;;;;;;;;5077825;28;20062;-64
2023/01/29 06:55:08;;;;;;;12.90;8.40;;;;;;;;;;5081014;28;20031;-64
2023/01/29 06:57:34;;;;;;;10.65;7.93;;;;;;;;;;5080170;28;20540;-64
2023/01/29 07:00:00;;;;;;;11.95;7.50;;;;;;;;;;5079595;28;20059;-64
2023/01/29 07:02:25;;;;;;;12.65;8.30;;;;;;;;;;5077617;28;20043;-64
2023/01/29 07:04:51;;;;;;;14.38;8.70;;;;;;;;;;5081188;28;20046;-64
2023/01/29 07:07:17;;;;;;;9.60;7.75;;;;;;;;;;5082549;28;20119;-64
2023/01/29 07:09:42;;;;;;;14.90;8.88;;;;;;;;;;5079369;28;20394;-64
2023/01/29 07:12:09;;;;;;;10.80;7.90;;;;;;;;;;5077969;28;20033;-64
2023/01/29 07:14:35;;;;;;;13.73;8.57;;;;;;;;;;5080916;28;20377;-65
2023/01/29 07:17:01;;;;;;;12.85;8.73;;;;;;;;;;5078473;28;20021;-65
2023/01/29 07:19:26;;;;;;;13.40;8.75;;;;;;;;;;5075701;28;20119;-64
2023/01/29 07:21:52;;;;;;;12.48;8.45;;;;;;;;;;5077772;28;20036;-64
2023/01/29 07:24:18;;;;;;;13.93;8.35;;;;;;;;;;5078212;28;20097;-64
2023/01/29 07:26:44;;;;;;;13.85;8.20;;;;;;;;;;5079050;28;20040;-64
2023/01/29 07:29:09;;;;;;;15.18;8.35;;;;;;;;;;5080020;28;20038;-64
2023/01/29 07:31:35;;;;;;;11.30;8.15;;;;;;;;;;5080715;28;20032;-64
2023/01/29 07:34:01;;;;;;;13.93;8.18;;;;;;;;;;5078698;28;20544;-64
2023/01/29 07:36:27;;;;;;;12.05;8.23;;;;;;;;;;5080935;28;20169;-65
2023/01/29 07:38:52;;;;;;;15.25;9.30;;;;;;;;;;5076577;28;20044;-65
2023/01/29 07:41:18;;;;;;;12.55;8.93;;;;;;;;;;5081201;28;20033;-65
2023/01/29 07:43:45;;;;;;;12.85;8.27;;;;;;;;;;5061974;28;20043;-64
2023/01/29 07:46:10;;;;;;;17.20;10.38;;;;;;;;;;5080041;28;20041;-64
2023/01/29 07:48:36;;;;;;;13.75;8.50;;;;;;;;;;5078481;28;20108;-65
2023/01/29 07:51:02;;;;;;;13.02;9.43;;;;;;;;;;5079800;28;20042;-64
2023/01/29 07:53:28;;;;;;;13.10;8.45;;;;;;;;;;5080062;28;20131;-64
2023/01/29 07:55:54;;;;;;;13.70;9.18;;;;;;;;;;5081222;28;20043;-64
2023/01/29 07:58:19;;;;;;;13.05;7.90;;;;;;;;;;5076922;28;20037;-64
2023/01/29 08:00:45;;;;;;;14.77;9.90;;;;;;;;;;5080699;28;20038;-64
2023/01/29 08:03:16;;;;;;;15.38;8.93;;;;;;;;;;5064691;28;20066;-64
2023/01/29 08:05:42;;;;;;;12.40;8.70;;;;;;;;;;5077880;28;20028;-64
2023/01/29 08:08:08;;;;;;;16.40;9.00;;;;;;;;;;5065203;28;20415;-65
2023/01/29 08:10:35;;;;;;;12.38;8.75;;;;;;;;;;5071150;28;20889;-64
2023/01/29 08:13:03;;;;;;;12.95;9.07;;;;;;;;;;5073999;28;20476;-65
2023/01/29 08:15:29;;;;;;;12.15;8.45;;;;;;;;;;5071865;28;20093;-64
2023/01/29 08:17:54;;;;;;;12.85;8.68;;;;;;;;;;5075169;28;20048;-65
2023/01/29 08:20:21;;;;;;;20.20;9.25;;;;;;;;;;5082005;28;20476;-64
2023/01/29 08:22:47;;;;;;;13.00;8.48;;;;;;;;;;5091321;28;20037;-66
2023/01/29 08:25:13;;;;;;;13.23;9.48;;;;;;;;;;5080813;28;20127;-64
2023/01/29 08:27:39;;;;;;;14.02;9.95;;;;;;;;;;5075942;28;20029;-64
2023/01/29 08:30:05;;;;;;;16.38;9.02;;;;;;;;;;5057179;28;20230;-65
2023/01/29 08:32:31;;;;;;;11.98;8.40;;;;;;;;;;5072785;28;20043;-64
2023/01/29 08:34:57;;;;;;;13.80;9.30;;;;;;;;;;5072768;28;20105;-64
2023/01/29 08:37:23;;;;;;;13.38;9.65;;;;;;;;;;5077532;28;20461;-64
2023/01/29 08:39:48;;;;;;;15.55;10.35;;;;;;;;;;5073083;28;20115;-66
2023/01/29 08:42:14;;;;;;;17.25;10.77;;;;;;;;;;5057941;28;20391;-65
2023/01/29 08:44:40;;;;;;;16.08;9.75;;;;;;;;;;5074213;28;20465;-65
2023/01/29 08:47:05;;;;;;;16.02;9.48;;;;;;;;;;5074220;28;20036;-65
2023/01/29 08:49:31;;;;;;;16.42;9.43;;;;;;;;;;5074126;28;20115;-65
2023/01/29 08:51:57;;;;;;;13.60;9.65;;;;;;;;;;5073537;28;20038;-65
2023/01/29 08:54:23;;;;;;;14.65;9.48;;;;;;;;;;5071140;28;20068;-65
2023/01/29 08:56:50;;;;;;;12.90;9.68;;;;;;;;;;5054601;28;20281;-65
2023/01/29 08:59:15;;;;;;;14.40;10.05;;;;;;;;;;5075631;28;20036;-65
2023/01/29 09:01:41;;;;;;;14.45;9.02;;;;;;;;;;5070972;28;20033;-65
2023/01/29 09:04:07;;;;;;;13.07;9.35;;;;;;;;;;5076833;28;20032;-65
2023/01/29 09:06:32;;;;;;;14.93;10.73;;;;;;;;;;5071550;28;20541;-65
2023/01/29 09:08:58;;;;;;;15.98;10.65;;;;;;;;;;5070305;28;20031;-65
2023/01/29 09:11:24;;;;;;;15.30;9.52;;;;;;;;;;5073834;28;20829;-65
2023/01/29 09:13:49;;;;;;;13.32;9.13;;;;;;;;;;5075923;28;20491;-65
2023/01/29 09:16:15;;;;;;;16.35;11.57;;;;;;;;;;5071976;28;20032;-65
2023/01/29 09:18:40;;;;;;;14.45;10.15;;;;;;;;;;5073248;28;20768;-65
2023/01/29 09:21:06;;;;;;;17.25;10.50;;;;;;;;;;5073518;28;20044;-66
2023/01/29 09:23:32;;;;;;;23.83;13.40;;;;;;;;;;5073052;28;20043;-64
2023/01/29 09:25:58;;;;;;;21.30;12.20;;;;;;;;;;5076608;28;20039;-64
2023/01/29 09:28:24;;;;;;;14.75;9.30;;;;;;;;;;5075872;28;20044;-65
2023/01/29 09:30:50;;;;;;;12.40;9.02;;;;;;;;;;5070581;28;20051;-65
2023/01/29 09:33:15;;;;;;;10.88;8.15;;;;;;;;;;5070956;28;20047;-65
2023/01/29 09:35:42;;;;;;;12.02;8.23;;;;;;;;;;5077402;28;20039;-65
2023/01/29 09:38:09;;;;;;;14.43;10.88;;;;;;;;;;5072298;28;20103;-65
2023/01/29 09:40:50;;;;;;;18.35;10.30;;;;;;;;;;5075391;28;20028;-65
2023/01/29 09:43:39;;;;;;;13.68;9.57;;;;;;;;;;5075110;28;20108;-64
2023/01/29 09:46:34;;;;;;;16.55;10.73;;;;;;;;;;5074242;28;20048;-65
2023/01/29 09:49:31;;;;;;;20.67;14.07;;;;;;;;;;5069679;28;20071;-65
2023/01/29 09:52:04;;;;;;;14.93;10.07;;;;;;;;;;5070460;28;20041;-65
2023/01/29 09:54:36;;;;;;;11.95;9.68;;;;;;;;;;5075331;28;20109;-65
2023/01/29 09:57:02;;;;;;;15.02;9.65;;;;;;;;;;5074584;28;20096;-65
2023/01/29 09:59:30;;;;;;;13.30;9.27;;;;;;;;;;5073760;28;20122;-64
2023/01/29 10:02:04;;;;;;;12.82;8.63;;;;;;;;;;5072869;28;20557;-65
2023/01/29 10:04:49;;;;;;;13.75;8.95;;;;;;;;;;5074198;28;20492;-65
2023/01/29 10:07:30;;;;;;;10.73;8.63;;;;;;;;;;5074832;28;20040;-65
2023/01/29 10:10:25;;;;;;;7.78;6.10;;;;;;;;;;5071860;28;20132;-64
2023/01/29 10:13:12;;;;;;;11.80;8.60;;;;;;;;;;5063004;28;20048;-65
2023/01/29 10:15:55;;;;;;;12.02;8.00;;;;;;;;;;5067426;28;20066;-65
2023/01/29 10:18:42;;;;;;;10.98;8.27;;;;;;;;;;5078047;28;20051;-65
2023/01/29 10:21:24;;;;;;;11.23;9.27;;;;;;;;;;5080999;28;20032;-66
2023/01/29 10:24:07;;;;;;;13.75;8.40;;;;;;;;;;5075267;28;20062;-65
2023/01/29 10:26:34;;;;;;;11.50;8.80;;;;;;;;;;5078164;28;20143;-65
2023/01/29 10:29:04;;;;;;;12.48;8.48;;;;;;;;;;5076412;28;20028;-65
2023/01/29 10:31:33;;;;;;;11.70;8.95;;;;;;;;;;5074393;28;20484;-65
2023/01/29 10:34:25;;;;;;;12.57;8.87;;;;;;;;;;5078046;28;20142;-66
2023/01/29 10:36:53;;;;;;;15.20;10.57;;;;;;;;;;5078542;28;20046;-66
2023/01/29 10:39:21;;;;;;;15.02;9.55;;;;;;;;;;5073695;28;20043;-66
2023/01/29 10:42:04;;;;;;;15.40;10.57;;;;;;;;;;5054828;28;20040;-66
2023/01/29 10:44:42;;;;;;;13.30;10.00;;;;;;;;;;5075432;28;20205;-66
2023/01/29 10:47:31;;;;;;;11.70;9.38;;;;;;;;;;5078520;28;20589;-66
2023/01/29 10:50:11;;;;;;;15.15;10.75;;;;;;;;;;5073722;28;20043;-66
2023/01/29 10:52:54;;;;;;;11.73;9.15;;;;;;;;;;5073297;28;20472;-66
2023/01/29 10:55:54;;;;;;;11.98;9.10;;;;;;;;;;5073145;28;20043;-67
2023/01/29 10:58:33;;;;;;;11.35;8.65;;;;;;;;;;5075125;28;20070;-65
2023/01/29 11:00:59;;;;;;;13.07;9.93;;;;;;;;;;5080628;28;20055;-65
2023/01/29 11:03:26;;;;;;;12.07;8.85;;;;;;;;;;5074524;28;20070;-65
2023/01/29 11:06:10;;;;;;;13.25;9.45;;;;;;;;;;5072383;28;20033;-67
2023/01/29 11:08:42;;;;;;;14.20;9.80;;;;;;;;;;5076420;28;20170;-65
2023/01/29 11:11:13;;;;;;;12.57;9.52;;;;;;;;;;5075235;28;20089;-67
2023/01/29 11:13:59;;;;;;;13.27;9.52;;;;;;;;;;5075717;28;20036;-67
2023/01/29 11:16:27;;;;;;;13.27;10.18;;;;;;;;;;5074604;28;20044;-67
2023/01/29 11:18:57;;;;;;;11.97;9.37;;;;;;;;;;5078161;28;20039;-67
2023/01/29 11:21:24;;;;;;;;;;;;;;;;;;5072851;28;20345;-67
2023/01/29 11:24:03;;;;;;;11.95;9.27;;;;;;;;;;5077268;28;20437;-67
2023/01/29 11:26:28;;;;;;;;;;;;;;;;;;5079143;28;20040;-65
2023/01/29 11:28:54;;;;;;;25.40;15.80;;;;;;;;;;5079738;28;19916;-66
2023/01/29 11:31:50;;;;;;;15.90;10.90;;;;;;;;;;5078181;28;20131;-66
2023/01/29 11:34:21;;;;;;;12.20;9.80;;;;;;;;;;5000091;28;20060;-66
2023/01/29 11:36:57;;;;;;;17.55;11.32;;;;;;;;;;4998543;28;20370;-66
2023/01/29 11:39:23;;;;;;;10.85;8.82;;;;;;;;;;4996034;28;20049;-67
2023/01/29 11:41:59;;;;;;;9.45;7.75;;;;;;;;;;5000662;28;20042;-67
2023/01/29 11:44:29;;;;;;;11.20;8.95;;;;;;;;;;4956588;28;1136486;-66
2023/01/29 11:46:57;;;;;;;13.10;9.98;;;;;;;;;;4996510;28;20123;-66
2023/01/29 11:49:34;;;;;;;11.68;8.85;;;;;;;;;;5006302;28;20144;-67
2023/01/29 11:52:03;;;;;;;8.98;7.25;;;;;;;;;;4995982;28;20054;-67
2023/01/29 11:55:02;;;;;;;9.15;6.53;;;;;;;;;;4986226;28;20053;-66
2023/01/29 11:57:39;;;;;;;11.60;9.20;;;;;;;;;;4998346;28;20041;-66
2023/01/29 12:00:20;;;;;;;15.18;10.75;;;;;;;;;;5000899;28;20109;-69
2023/01/29 12:02:55;;;;;;;13.90;9.32;;;;;;;;;;4996995;28;20156;-66
2023/01/29 12:05:23;;;;;;;11.80;10.00;;;;;;;;;;5000232;28;20054;-66
2023/01/29 12:07:55;;;;;;;13.20;10.15;;;;;;;;;;4996289;28;20038;-67
2023/01/29 12:10:38;;;;;;;19.27;11.00;;;;;;;;;;5023315;28;20625;-65
2023/01/29 12:13:09;;;;;;;13.52;10.00;;;;;;;;;;5082153;28;20051;-65
2023/01/29 12:15:36;;;;;;;15.48;8.50;;;;;;;;;;5083108;28;20032;-65
2023/01/29 12:18:15;;;;;;;12.13;9.18;;;;;;;;;;5077847;28;20722;-67
2023/01/29 12:20:53;;;;;;;12.43;9.23;;;;;;;;;;5075480;28;20751;-68
2023/01/29 12:23:40;;;;;;;11.05;7.65;;;;;;;;;;5081234;28;20167;-67
2023/01/29 12:26:23;;;;;;;9.63;8.05;;;;;;;;;;5070993;28;20039;-67
2023/01/29 12:29:07;;;;;;;5.72;5.15;;;;;;;;;;5074955;28;20066;-66
2023/01/29 12:31:58;;;;;;;12.60;8.40;;;;;;;;;;5082616;28;20111;-67
2023/01/29 12:34:23;;;;;;;9.10;6.90;;;;;;;;;;5070480;28;20101;-66
2023/01/29 12:36:58;;;;;;;10.88;8.88;;;;;;;;;;5074190;28;20031;-66
2023/01/29 12:39:24;;;;;;;10.75;7.78;;;;;;;;;;5075813;28;20039;-65
2023/01/29 12:42:26;;;;;;;10.55;8.50;;;;;;;;;;5073242;28;20035;-66
2023/01/29 12:45:06;;;;;;;11.10;8.38;;;;;;;;;;5007094;28;20094;-67
2023/01/29 12:47:39;;;;;;;12.25;8.07;;;;;;;;;;5013544;28;20216;-66
2023/01/29 12:50:20;;;;;;;9.68;7.30;;;;;;;;;;5011660;28;20034;-66
2023/01/29 12:53:00;;;;;;;9.48;6.63;;;;;;;;;;5008121;28;20041;-65
2023/01/29 12:55:59;;;;;;;11.00;7.10;;;;;;;;;;5009713;28;20077;-66
2023/01/29 12:58:30;;;;;;;;;;;;;;;;;;5006652;28;20044;-66
2023/01/29 13:01:02;;;;;;;10.70;7.63;;;;;;;;;;5008640;28;19923;-67
2023/01/29 13:03:58;;;;;;;8.63;7.00;;;;;;;;;;5014919;28;20049;-67
2023/01/29 13:06:34;;;;;;;9.18;6.90;;;;;;;;;;5010382;28;20112;-67
2023/01/29 13:09:08;;;;;;;8.63;6.93;;;;;;;;;;5008878;28;20046;-67
2023/01/29 13:11:39;;;;;;;8.70;5.90;;;;;;;;;;5011635;28;20567;-66
2023/01/29 13:14:28;;;;;;;6.25;5.60;;;;;;;;;;5009398;28;20061;-66
2023/01/29 13:17:21;;;;;;;12.52;6.90;;;;;;;;;;5005871;28;20042;-66
2023/01/29 13:19:49;;;;;;;8.63;6.93;;;;;;;;;;5065021;28;20139;-66
2023/01/29 13:22:21;;;;;;;8.75;7.43;;;;;;;;;;5075836;28;20028;-66
2023/01/29 13:24:47;;;;;;;11.45;7.70;;;;;;;;;;5072117;28;20369;-66
2023/01/29 13:27:24;;;;;;;8.95;6.53;;;;;;;;;;5074447;28;20039;-66
2023/01/29 13:29:49;;;;;;;13.55;7.93;;;;;;;;;;5075842;28;20032;-66
2023/01/29 13:32:34;;;;;;;8.10;6.93;;;;;;;;;;5077886;28;20374;-66
2023/01/29 13:35:11;;;;;;;8.82;7.20;;;;;;;;;;5071207;28;20041;-66
2023/01/29 13:37:45;;;;;;;9.90;5.90;;;;;;;;;;5062750;28;20067;-65
2023/01/29 13:40:20;;;;;;;7.03;5.93;;;;;;;;;;5068173;28;20044;-66
2023/01/29 13:42:48;;;;;;;8.63;6.40;;;;;;;;;;5077189;28;20444;-66
2023/01/29 13:45:20;;;;;;;10.18;7.85;;;;;;;;;;5076083;28;20738;-66
2023/01/29 13:47:48;;;;;;;12.35;10.18;;;;;;;;;;5072899;28;20029;-67
2023/01/29 13:50:29;;;;;;;8.10;5.85;;;;;;;;;;5074345;28;20484;-67
2023/01/29 13:53:00;;;;;;;8.70;6.90;;;;;;;;;;5080879;28;20412;-67
2023/01/29 13:55:32;;;;;;;11.60;6.03;;;;;;;;;;5077373;28;20123;-66
2023/01/29 13:58:02;;;;;;;7.13;5.78;;;;;;;;;;5064471;28;20118;-66
2023/01/29 14:00:34;;;;;;;8.48;5.93;;;;;;;;;;5080562;28;20044;-67
2023/01/29 14:02:59;;;;;;;9.30;6.93;;;;;;;;;;5079029;28;20044;-66
2023/01/29 14:05:51;;;;;;;11.80;8.80;;;;;;;;;;5080129;28;20073;-66
2023/01/29 14:08:37;;;;;;;11.30;7.68;;;;;;;;;;5049205;28;20105;-66
2023/01/29 14:11:12;;;;;;;9.50;6.90;;;;;;;;;;5075738;28;20063;-66
2023/01/29 14:13:38;;;;;;;9.52;7.22;;;;;;;;;;5078582;28;20036;-66
2023/01/29 14:16:03;;;;;;;9.00;6.82;;;;;;;;;;5079776;28;20020;-66
2023/01/29 14:18:34;;;;;;;9.10;7.10;;;;;;;;;;5079053;28;20051;-66
2023/01/29 14:21:06;;;;;;;7.95;6.63;;;;;;;;;;5077768;28;20043;-67
2023/01/29 14:23:48;;;;;;;9.85;7.43;;;;;;;;;;5080986;28;20040;-66
2023/01/29 14:26:44;;;;;;;11.00;7.18;;;;;;;;;;5075067;28;20089;-66
2023/01/29 14:29:19;;;;;;;11.77;8.05;;;;;;;;;;5078818;28;20120;-66
2023/01/29 14:31:58;;;;;;;9.05;6.85;;;;;;;;;;5081746;28;20064;-66
2023/01/29 14:34:41;;;;;;;10.63;7.53;;;;;;;;;;5078594;28;20757;-66
2023/01/29 14:37:15;;;;;;;9.45;6.63;;;;;;;;;;5078454;28;20056;-66
2023/01/29 14:39:50;;;;;;;10.82;7.65;;;;;;;;;;5079878;28;20043;-66
2023/01/29 14:42:33;;;;;;;13.10;6.97;;;;;;;;;;5073117;28;20066;-66
2023/01/29 14:45:10;;;;;;;9.13;7.25;;;;;;;;;;5078170;28;20028;-66
2023/01/29 14:47:35;;;;;;;10.57;7.22;;;;;;;;;;5074417;28;20734;-66
2023/01/29 14:50:25;;;;;;;14.48;8.43;;;;;;;;;;5076747;28;20032;-66
2023/01/29 14:52:52;;;;;;;10.00;7.55;;;;;;;;;;5069447;28;20048;-67
2023/01/29 14:55:39;;;;;;;11.18;6.60;;;;;;;;;;5072447;28;20141;-66
2023/01/29 14:58:05;;;;;;;8.77;6.93;;;;;;;;;;5079069;28;20055;-66
2023/01/29 15:00:37;;;;;;;8.60;6.32;;;;;;;;;;5073481;28;20028;-66
2023/01/29 15:03:12;;;;;;;13.15;8.65;;;;;;;;;;5077572;28;20069;-66
2023/01/29 15:05:40;;;;;;;11.52;7.45;;;;;;;;;;5076045;28;20688;-66
2023/01/29 15:08:34;;;;;;;8.93;7.03;;;;;;;;;;5069369;28;20039;-66
2023/01/29 15:13:59;;;;;;;11.10;7.45;;;;;;;;;;5057120;28;20121;-66
2023/01/29 15:16:31;;;;;;;10.07;7.68;;;;;;;;;;5073883;28;20031;-65
2023/01/29 15:19:12;;;;;;;12.27;8.30;;;;;;;;;;5076512;28;20039;-66
2023/01/29 15:21:38;;;;;;;10.73;8.07;;;;;;;;;;5075827;28;20116;-66
2023/01/29 15:24:05;;;;;;;11.25;7.07;;;;;;;;;;5072675;28;20126;-67
2023/01/29 15:26:32;;;;;;;9.45;6.60;;;;;;;;;;5073720;28;20042;-66
2023/01/29 15:28:59;;;;;;;11.60;7.20;;;;;;;;;;5077623;28;20032;-65
2023/01/29 15:31:26;;;;;;;12.93;6.72;;;;;;;;;;5073204;28;20035;-66
2023/01/29 15:33:54;;;;;;;10.48;7.72;;;;;;;;;;5061375;28;20043;-66
2023/01/29 15:36:26;;;;;;;15.37;7.60;;;;;;;;;;5080912;28;20503;-65
2023/01/29 15:39:10;;;;;;;10.40;7.35;;;;;;;;;;5076257;28;20302;-65
2023/01/29 15:41:36;;;;;;;8.85;6.75;;;;;;;;;;5078530;28;20048;-66